sensor_id;sensor_type;location;lat;lon;timestamp;pressure;altitude;pressure_sealevel;temperature
81657;BMP280;71067;51.482;-0.580;2023-07-20T00:02:10;101574.19;;;18.56
81657;BMP280;71067;51.482;-0.580;2023-07-20T00:04:35;101566.88;;;18.51
81657;BMP280;71067;51.482;-0.580;2023-07-20T00:07:01;101569.88;;;18.48
81657;BMP280;71067;51.482;-0.580;2023-07-20T00:09:27;101574.94;;;18.50
81657;BMP280;71067;51.482;-0.580;2023-07-20T00:11:52;101580.19;;;18.50
81657;BMP280;71067;51.482;-0.580;2023-07-20T00:14:18;101569.03;;;18.41
81657;BMP280;71067;51.482;-0.580;2023-07-20T00:16:49;101568.84;;;18.43
81657;BMP280;71067;51.482;-0.580;2023-07-20T00:19:22;101569.63;;;18.43
81657;BMP280;71067;51.482;-0.580;2023-07-20T00:21:47;101571.88;;;18.40
81657;BMP280;71067;51.482;-0.580;2023-07-20T00:24:13;101562.13;;;18.27
81657;BMP280;71067;51.482;-0.580;2023-07-20T00:26:38;101564.47;;;18.22
81657;BMP280;71067;51.482;-0.580;2023-07-20T00:29:03;101570.91;;;18.20
81657;BMP280;71067;51.482;-0.580;2023-07-20T00:31:29;101574.50;;;18.12
81657;BMP280;71067;51.482;-0.580;2023-07-20T00:33:54;101575.16;;;18.21
81657;BMP280;71067;51.482;-0.580;2023-07-20T00:36:20;101578.25;;;18.24
81657;BMP280;71067;51.482;-0.580;2023-07-20T00:38:45;101571.78;;;18.27
81657;BMP280;71067;51.482;-0.580;2023-07-20T00:41:10;101571.16;;;18.25
81657;BMP280;71067;51.482;-0.580;2023-07-20T00:43:36;101560.41;;;18.20
81657;BMP280;71067;51.482;-0.580;2023-07-20T00:46:01;101569.31;;;18.19
81657;BMP280;71067;51.482;-0.580;2023-07-20T00:48:29;101554.56;;;18.18
81657;BMP280;71067;51.482;-0.580;2023-07-20T00:50:54;101563.47;;;18.17
81657;BMP280;71067;51.482;-0.580;2023-07-20T00:53:20;101558.84;;;18.19
81657;BMP280;71067;51.482;-0.580;2023-07-20T00:55:46;101561.63;;;18.17
81657;BMP280;71067;51.482;-0.580;2023-07-20T00:58:12;101557.97;;;18.12
81657;BMP280;71067;51.482;-0.580;2023-07-20T01:00:37;101560.34;;;18.07
81657;BMP280;71067;51.482;-0.580;2023-07-20T01:03:02;101552.69;;;18.05
81657;BMP280;71067;51.482;-0.580;2023-07-20T01:05:40;101550.66;;;18.01
81657;BMP280;71067;51.482;-0.580;2023-07-20T01:08:14;101554.22;;;17.93
81657;BMP280;71067;51.482;-0.580;2023-07-20T01:10:51;101542.25;;;17.84
81657;BMP280;71067;51.482;-0.580;2023-07-20T01:13:19;101550.72;;;17.86
81657;BMP280;71067;51.482;-0.580;2023-07-20T01:15:50;101543.56;;;17.74
81657;BMP280;71067;51.482;-0.580;2023-07-20T01:18:16;101551.81;;;17.71
81657;BMP280;71067;51.482;-0.580;2023-07-20T01:20:41;101552.72;;;17.63
81657;BMP280;71067;51.482;-0.580;2023-07-20T01:23:28;101543.84;;;17.58
81657;BMP280;71067;51.482;-0.580;2023-07-20T01:29:35;101551.00;;;17.49
81657;BMP280;71067;51.482;-0.580;2023-07-20T01:32:08;101553.38;;;17.44
81657;BMP280;71067;51.482;-0.580;2023-07-20T01:34:34;101551.31;;;17.40
81657;BMP280;71067;51.482;-0.580;2023-07-20T01:37:01;101545.13;;;17.26
81657;BMP280;71067;51.482;-0.580;2023-07-20T01:39:27;101557.31;;;17.34
81657;BMP280;71067;51.482;-0.580;2023-07-20T01:41:53;101556.66;;;17.31
81657;BMP280;71067;51.482;-0.580;2023-07-20T01:44:18;101558.53;;;17.16
81657;BMP280;71067;51.482;-0.580;2023-07-20T01:46:44;101561.06;;;17.10
81657;BMP280;71067;51.482;-0.580;2023-07-20T01:49:09;101553.97;;;17.04
81657;BMP280;71067;51.482;-0.580;2023-07-20T01:51:34;101560.53;;;17.00
81657;BMP280;71067;51.482;-0.580;2023-07-20T01:54:00;101564.44;;;17.04
81657;BMP280;71067;51.482;-0.580;2023-07-20T01:56:25;101561.19;;;17.02
81657;BMP280;71067;51.482;-0.580;2023-07-20T01:58:51;101558.13;;;16.98
81657;BMP280;71067;51.482;-0.580;2023-07-20T02:01:16;101553.25;;;16.95
81657;BMP280;71067;51.482;-0.580;2023-07-20T02:03:41;101550.63;;;16.95
81657;BMP280;71067;51.482;-0.580;2023-07-20T02:06:07;101555.03;;;16.95
81657;BMP280;71067;51.482;-0.580;2023-07-20T02:08:32;101552.81;;;16.92
81657;BMP280;71067;51.482;-0.580;2023-07-20T02:10:57;101542.63;;;16.82
81657;BMP280;71067;51.482;-0.580;2023-07-20T02:13:23;101541.22;;;16.65
81657;BMP280;71067;51.482;-0.580;2023-07-20T02:15:48;101530.41;;;16.54
81657;BMP280;71067;51.482;-0.580;2023-07-20T02:18:14;101548.78;;;16.60
81657;BMP280;71067;51.482;-0.580;2023-07-20T02:20:40;101547.25;;;16.51
81657;BMP280;71067;51.482;-0.580;2023-07-20T02:23:06;101538.25;;;16.54
81657;BMP280;71067;51.482;-0.580;2023-07-20T02:25:31;101541.75;;;16.46
81657;BMP280;71067;51.482;-0.580;2023-07-20T02:27:57;101531.41;;;16.38
81657;BMP280;71067;51.482;-0.580;2023-07-20T02:30:23;101539.25;;;16.38
81657;BMP280;71067;51.482;-0.580;2023-07-20T02:32:48;101539.94;;;16.32
81657;BMP280;71067;51.482;-0.580;2023-07-20T02:35:14;101535.06;;;16.29
81657;BMP280;71067;51.482;-0.580;2023-07-20T02:37:40;101537.06;;;16.27
81657;BMP280;71067;51.482;-0.580;2023-07-20T02:40:06;101550.75;;;16.29
81657;BMP280;71067;51.482;-0.580;2023-07-20T02:42:32;101549.47;;;16.25
81657;BMP280;71067;51.482;-0.580;2023-07-20T02:44:57;101535.59;;;16.10
81657;BMP280;71067;51.482;-0.580;2023-07-20T02:47:23;101549.75;;;16.16
81657;BMP280;71067;51.482;-0.580;2023-07-20T02:49:48;101548.03;;;16.08
81657;BMP280;71067;51.482;-0.580;2023-07-20T02:52:14;101545.13;;;16.03
81657;BMP280;71067;51.482;-0.580;2023-07-20T02:54:39;101547.16;;;15.93
81657;BMP280;71067;51.482;-0.580;2023-07-20T02:57:05;101543.56;;;15.94
81657;BMP280;71067;51.482;-0.580;2023-07-20T02:59:30;101545.50;;;16.00
81657;BMP280;71067;51.482;-0.580;2023-07-20T03:01:56;101543.84;;;15.99
81657;BMP280;71067;51.482;-0.580;2023-07-20T03:04:22;101549.44;;;15.96
81657;BMP280;71067;51.482;-0.580;2023-07-20T03:06:49;101549.75;;;15.93
81657;BMP280;71067;51.482;-0.580;2023-07-20T03:09:14;101540.50;;;15.90
81657;BMP280;71067;51.482;-0.580;2023-07-20T03:11:40;101539.03;;;15.88
81657;BMP280;71067;51.482;-0.580;2023-07-20T03:14:06;101545.91;;;15.89
81657;BMP280;71067;51.482;-0.580;2023-07-20T03:16:31;101547.06;;;15.86
81657;BMP280;71067;51.482;-0.580;2023-07-20T03:18:58;101542.56;;;15.80
81657;BMP280;71067;51.482;-0.580;2023-07-20T03:21:25;101518.47;;;15.70
81657;BMP280;71067;51.482;-0.580;2023-07-20T03:23:50;101544.34;;;15.80
81657;BMP280;71067;51.482;-0.580;2023-07-20T03:26:15;101539.03;;;15.73
81657;BMP280;71067;51.482;-0.580;2023-07-20T03:28:41;101549.78;;;15.70
81657;BMP280;71067;51.482;-0.580;2023-07-20T03:31:06;101539.34;;;15.70
81657;BMP280;71067;51.482;-0.580;2023-07-20T03:33:31;101537.91;;;15.68
81657;BMP280;71067;51.482;-0.580;2023-07-20T03:35:57;101546.72;;;15.67
81657;BMP280;71067;51.482;-0.580;2023-07-20T03:38:25;101536.00;;;15.62
81657;BMP280;71067;51.482;-0.580;2023-07-20T03:40:59;101545.63;;;15.61
81657;BMP280;71067;51.482;-0.580;2023-07-20T03:43:25;101534.59;;;15.51
81657;BMP280;71067;51.482;-0.580;2023-07-20T03:45:52;101544.88;;;15.53
81657;BMP280;71067;51.482;-0.580;2023-07-20T03:48:21;101541.09;;;15.55
81657;BMP280;71067;51.482;-0.580;2023-07-20T03:50:48;101545.78;;;15.60
81657;BMP280;71067;51.482;-0.580;2023-07-20T03:53:14;101541.09;;;15.55
81657;BMP280;71067;51.482;-0.580;2023-07-20T03:55:40;101541.91;;;15.56
81657;BMP280;71067;51.482;-0.580;2023-07-20T03:58:07;101546.19;;;15.49
81657;BMP280;71067;51.482;-0.580;2023-07-20T04:00:33;101540.97;;;15.49
81657;BMP280;71067;51.482;-0.580;2023-07-20T04:02:59;101531.13;;;15.36
81657;BMP280;71067;51.482;-0.580;2023-07-20T04:05:24;101543.16;;;15.37
81657;BMP280;71067;51.482;-0.580;2023-07-20T04:07:50;101547.38;;;15.38
81657;BMP280;71067;51.482;-0.580;2023-07-20T04:10:16;101535.03;;;15.32
81657;BMP280;71067;51.482;-0.580;2023-07-20T04:12:42;101538.34;;;15.26
81657;BMP280;71067;51.482;-0.580;2023-07-20T04:15:07;101538.00;;;15.29
81657;BMP280;71067;51.482;-0.580;2023-07-20T04:17:33;101541.75;;;15.27
81657;BMP280;71067;51.482;-0.580;2023-07-20T04:19:58;101537.66;;;15.32
81657;BMP280;71067;51.482;-0.580;2023-07-20T04:22:23;101537.38;;;15.27
81657;BMP280;71067;51.482;-0.580;2023-07-20T04:24:49;101548.97;;;15.25
81657;BMP280;71067;51.482;-0.580;2023-07-20T04:27:14;101542.75;;;15.26
81657;BMP280;71067;51.482;-0.580;2023-07-20T04:29:39;101546.16;;;15.26
81657;BMP280;71067;51.482;-0.580;2023-07-20T04:32:05;101541.81;;;15.19
81657;BMP280;71067;51.482;-0.580;2023-07-20T04:34:31;101547.06;;;15.11
81657;BMP280;71067;51.482;-0.580;2023-07-20T04:36:56;101543.53;;;15.04
81657;BMP280;71067;51.482;-0.580;2023-07-20T04:39:21;101556.22;;;15.07
81657;BMP280;71067;51.482;-0.580;2023-07-20T04:41:47;101550.88;;;15.00
81657;BMP280;71067;51.482;-0.580;2023-07-20T04:44:13;101542.38;;;15.06
81657;BMP280;71067;51.482;-0.580;2023-07-20T04:46:39;101544.28;;;15.12
81657;BMP280;71067;51.482;-0.580;2023-07-20T04:49:05;101539.09;;;15.04
81657;BMP280;71067;51.482;-0.580;2023-07-20T04:51:30;101550.84;;;15.08
81657;BMP280;71067;51.482;-0.580;2023-07-20T04:53:56;101546.25;;;15.10
81657;BMP280;71067;51.482;-0.580;2023-07-20T04:56:22;101547.41;;;15.08
81657;BMP280;71067;51.482;-0.580;2023-07-20T04:58:48;101549.06;;;15.00
81657;BMP280;71067;51.482;-0.580;2023-07-20T05:01:14;101549.59;;;14.96
81657;BMP280;71067;51.482;-0.580;2023-07-20T05:03:39;101547.44;;;14.99
81657;BMP280;71067;51.482;-0.580;2023-07-20T05:06:04;101554.13;;;15.02
81657;BMP280;71067;51.482;-0.580;2023-07-20T05:08:29;101542.88;;;15.01
81657;BMP280;71067;51.482;-0.580;2023-07-20T05:10:55;101546.16;;;15.04
81657;BMP280;71067;51.482;-0.580;2023-07-20T05:13:20;101549.38;;;15.06
81657;BMP280;71067;51.482;-0.580;2023-07-20T05:15:45;101545.66;;;15.00
81657;BMP280;71067;51.482;-0.580;2023-07-20T05:18:11;101554.94;;;15.02
81657;BMP280;71067;51.482;-0.580;2023-07-20T05:20:36;101551.38;;;15.04
81657;BMP280;71067;51.482;-0.580;2023-07-20T05:23:02;101549.50;;;15.04
81657;BMP280;71067;51.482;-0.580;2023-07-20T05:25:28;101553.78;;;15.05
81657;BMP280;71067;51.482;-0.580;2023-07-20T05:27:53;101550.53;;;15.03
81657;BMP280;71067;51.482;-0.580;2023-07-20T05:30:20;101551.66;;;15.09
81657;BMP280;71067;51.482;-0.580;2023-07-20T05:32:46;101554.03;;;15.18
81657;BMP280;71067;51.482;-0.580;2023-07-20T05:35:16;101545.88;;;15.21
81657;BMP280;71067;51.482;-0.580;2023-07-20T05:37:42;101546.50;;;15.23
81657;BMP280;71067;51.482;-0.580;2023-07-20T05:40:07;101545.66;;;15.31
81657;BMP280;71067;51.482;-0.580;2023-07-20T05:42:33;101538.47;;;15.33
81657;BMP280;71067;51.482;-0.580;2023-07-20T05:44:59;101543.16;;;15.37
81657;BMP280;71067;51.482;-0.580;2023-07-20T05:47:24;101544.28;;;15.43
81657;BMP280;71067;51.482;-0.580;2023-07-20T05:49:49;101543.28;;;15.44
81657;BMP280;71067;51.482;-0.580;2023-07-20T05:52:15;101531.06;;;15.44
81657;BMP280;71067;51.482;-0.580;2023-07-20T05:54:40;101546.59;;;15.60
81657;BMP280;71067;51.482;-0.580;2023-07-20T05:57:05;101548.06;;;15.63
81657;BMP280;71067;51.482;-0.580;2023-07-20T05:59:31;101548.63;;;15.73
81657;BMP280;71067;51.482;-0.580;2023-07-20T06:01:56;101553.19;;;15.79
81657;BMP280;71067;51.482;-0.580;2023-07-20T06:04:22;101548.38;;;15.82
81657;BMP280;71067;51.482;-0.580;2023-07-20T06:06:48;101540.84;;;15.87
81657;BMP280;71067;51.482;-0.580;2023-07-20T06:09:13;101548.16;;;15.92
81657;BMP280;71067;51.482;-0.580;2023-07-20T06:11:39;101539.16;;;15.94
81657;BMP280;71067;51.482;-0.580;2023-07-20T06:14:05;101548.53;;;16.03
81657;BMP280;71067;51.482;-0.580;2023-07-20T06:16:30;101535.47;;;16.03
81657;BMP280;71067;51.482;-0.580;2023-07-20T06:18:55;101557.41;;;16.17
81657;BMP280;71067;51.482;-0.580;2023-07-20T06:21:21;101558.69;;;16.21
81657;BMP280;71067;51.482;-0.580;2023-07-20T06:23:47;101543.06;;;16.13
81657;BMP280;71067;51.482;-0.580;2023-07-20T06:26:12;101553.47;;;16.21
81657;BMP280;71067;51.482;-0.580;2023-07-20T06:28:37;101547.84;;;16.24
81657;BMP280;71067;51.482;-0.580;2023-07-20T06:31:03;101555.34;;;16.27
81657;BMP280;71067;51.482;-0.580;2023-07-20T06:33:29;101551.72;;;16.28
81657;BMP280;71067;51.482;-0.580;2023-07-20T06:35:54;101557.88;;;16.35
81657;BMP280;71067;51.482;-0.580;2023-07-20T06:38:21;101550.66;;;16.37
81657;BMP280;71067;51.482;-0.580;2023-07-20T06:40:48;101549.88;;;16.37
81657;BMP280;71067;51.482;-0.580;2023-07-20T06:43:13;101548.06;;;16.37
81657;BMP280;71067;51.482;-0.580;2023-07-20T06:45:39;101554.56;;;16.41
81657;BMP280;71067;51.482;-0.580;2023-07-20T06:48:04;101541.66;;;16.40
81657;BMP280;71067;51.482;-0.580;2023-07-20T06:50:30;101554.28;;;16.51
81657;BMP280;71067;51.482;-0.580;2023-07-20T06:52:55;101556.38;;;16.55
81657;BMP280;71067;51.482;-0.580;2023-07-20T06:55:21;101554.19;;;16.59
81657;BMP280;71067;51.482;-0.580;2023-07-20T06:57:46;101555.63;;;16.61
81657;BMP280;71067;51.482;-0.580;2023-07-20T07:00:12;101558.88;;;16.63
81657;BMP280;71067;51.482;-0.580;2023-07-20T07:02:38;101557.88;;;16.64
81657;BMP280;71067;51.482;-0.580;2023-07-20T07:05:04;101560.75;;;16.69
81657;BMP280;71067;51.482;-0.580;2023-07-20T07:07:29;101562.84;;;16.74
81657;BMP280;71067;51.482;-0.580;2023-07-20T07:09:55;101560.31;;;16.80
81657;BMP280;71067;51.482;-0.580;2023-07-20T07:12:20;101557.13;;;16.85
81657;BMP280;71067;51.482;-0.580;2023-07-20T07:14:45;101561.03;;;16.89
81657;BMP280;71067;51.482;-0.580;2023-07-20T07:17:11;101563.72;;;16.95
81657;BMP280;71067;51.482;-0.580;2023-07-20T07:19:36;101555.28;;;17.00
81657;BMP280;71067;51.482;-0.580;2023-07-20T07:22:04;101551.91;;;16.99
81657;BMP280;71067;51.482;-0.580;2023-07-20T07:24:29;101550.53;;;17.03
81657;BMP280;71067;51.482;-0.580;2023-07-20T07:26:59;101547.63;;;17.13
81657;BMP280;71067;51.482;-0.580;2023-07-20T07:29:24;101548.16;;;17.23
81657;BMP280;71067;51.482;-0.580;2023-07-20T07:31:50;101553.78;;;17.26
81657;BMP280;71067;51.482;-0.580;2023-07-20T07:34:16;101554.06;;;17.31
81657;BMP280;71067;51.482;-0.580;2023-07-20T07:36:41;101544.84;;;17.36
81657;BMP280;71067;51.482;-0.580;2023-07-20T07:39:06;101551.56;;;17.45
81657;BMP280;71067;51.482;-0.580;2023-07-20T07:41:31;101553.69;;;17.56
81657;BMP280;71067;51.482;-0.580;2023-07-20T07:43:57;101545.25;;;17.60
81657;BMP280;71067;51.482;-0.580;2023-07-20T07:46:22;101549.13;;;17.64
81657;BMP280;71067;51.482;-0.580;2023-07-20T07:48:47;101553.69;;;17.77
81657;BMP280;71067;51.482;-0.580;2023-07-20T07:51:13;101545.88;;;17.83
81657;BMP280;71067;51.482;-0.580;2023-07-20T07:53:39;101542.56;;;17.96
81657;BMP280;71067;51.482;-0.580;2023-07-20T07:56:07;101543.63;;;18.08
81657;BMP280;71067;51.482;-0.580;2023-07-20T07:58:32;101538.38;;;18.08
81657;BMP280;71067;51.482;-0.580;2023-07-20T08:00:58;101549.53;;;18.16
81657;BMP280;71067;51.482;-0.580;2023-07-20T08:03:23;101545.13;;;18.23
81657;BMP280;71067;51.482;-0.580;2023-07-20T08:05:49;101526.97;;;18.22
81657;BMP280;71067;51.482;-0.580;2023-07-20T08:08:15;101542.59;;;18.36
81657;BMP280;71067;51.482;-0.580;2023-07-20T08:10:40;101545.66;;;18.46
81657;BMP280;71067;51.482;-0.580;2023-07-20T08:13:05;101542.69;;;18.63
81657;BMP280;71067;51.482;-0.580;2023-07-20T08:15:30;101535.91;;;18.75
81657;BMP280;71067;51.482;-0.580;2023-07-20T08:17:56;101544.84;;;18.87
81657;BMP280;71067;51.482;-0.580;2023-07-20T08:20:21;101541.03;;;19.02
81657;BMP280;71067;51.482;-0.580;2023-07-20T08:22:52;101544.47;;;19.09
81657;BMP280;71067;51.482;-0.580;2023-07-20T08:25:18;101542.44;;;19.11
81657;BMP280;71067;51.482;-0.580;2023-07-20T08:27:43;101536.00;;;19.14
81657;BMP280;71067;51.482;-0.580;2023-07-20T08:30:11;101530.97;;;19.25
81657;BMP280;71067;51.482;-0.580;2023-07-20T08:32:36;101529.16;;;19.26
81657;BMP280;71067;51.482;-0.580;2023-07-20T08:35:02;101538.03;;;19.38
81657;BMP280;71067;51.482;-0.580;2023-07-20T08:37:27;101532.59;;;19.46
81657;BMP280;71067;51.482;-0.580;2023-07-20T08:39:52;101531.78;;;19.52
81657;BMP280;71067;51.482;-0.580;2023-07-20T08:42:18;101534.22;;;19.60
81657;BMP280;71067;51.482;-0.580;2023-07-20T08:44:44;101531.38;;;19.61
81657;BMP280;71067;51.482;-0.580;2023-07-20T08:47:11;101535.63;;;19.75
81657;BMP280;71067;51.482;-0.580;2023-07-20T08:49:39;101534.59;;;19.76
81657;BMP280;71067;51.482;-0.580;2023-07-20T08:52:04;101532.59;;;19.78
81657;BMP280;71067;51.482;-0.580;2023-07-20T08:54:31;101535.00;;;19.86
81657;BMP280;71067;51.482;-0.580;2023-07-20T08:57:04;101519.59;;;19.90
81657;BMP280;71067;51.482;-0.580;2023-07-20T08:59:30;101532.94;;;20.02
81657;BMP280;71067;51.482;-0.580;2023-07-20T09:01:59;101522.25;;;19.97
81657;BMP280;71067;51.482;-0.580;2023-07-20T09:04:25;101532.91;;;20.08
81657;BMP280;71067;51.482;-0.580;2023-07-20T09:06:50;101537.59;;;20.13
81657;BMP280;71067;51.482;-0.580;2023-07-20T09:09:16;101531.31;;;20.14
81657;BMP280;71067;51.482;-0.580;2023-07-20T09:11:42;101522.00;;;20.18
81657;BMP280;71067;51.482;-0.580;2023-07-20T09:14:09;101528.22;;;20.30
81657;BMP280;71067;51.482;-0.580;2023-07-20T09:16:53;101521.53;;;20.27
81657;BMP280;71067;51.482;-0.580;2023-07-20T09:19:20;101517.66;;;20.36
81657;BMP280;71067;51.482;-0.580;2023-07-20T09:21:49;101521.66;;;20.45
81657;BMP280;71067;51.482;-0.580;2023-07-20T09:24:17;101520.44;;;20.48
81657;BMP280;71067;51.482;-0.580;2023-07-20T09:26:44;101525.81;;;20.66
81657;BMP280;71067;51.482;-0.580;2023-07-20T09:29:10;101527.38;;;20.73
81657;BMP280;71067;51.482;-0.580;2023-07-20T09:31:36;101523.53;;;20.76
81657;BMP280;71067;51.482;-0.580;2023-07-20T09:34:01;101522.69;;;20.82
81657;BMP280;71067;51.482;-0.580;2023-07-20T09:36:28;101529.13;;;20.86
81657;BMP280;71067;51.482;-0.580;2023-07-20T09:38:54;101518.59;;;20.92
81657;BMP280;71067;51.482;-0.580;2023-07-20T09:41:20;101513.53;;;20.91
81657;BMP280;71067;51.482;-0.580;2023-07-20T09:43:46;101507.06;;;20.87
81657;BMP280;71067;51.482;-0.580;2023-07-20T09:46:11;101510.63;;;20.99
81657;BMP280;71067;51.482;-0.580;2023-07-20T09:48:37;101519.50;;;21.04
81657;BMP280;71067;51.482;-0.580;2023-07-20T09:51:03;101512.00;;;21.08
81657;BMP280;71067;51.482;-0.580;2023-07-20T09:53:29;101515.19;;;21.16
81657;BMP280;71067;51.482;-0.580;2023-07-20T09:55:56;101505.59;;;21.22
81657;BMP280;71067;51.482;-0.580;2023-07-20T09:58:22;101502.50;;;21.25
81657;BMP280;71067;51.482;-0.580;2023-07-20T10:00:50;101504.88;;;21.33
81657;BMP280;71067;51.482;-0.580;2023-07-20T10:03:21;101495.41;;;21.25
81657;BMP280;71067;51.482;-0.580;2023-07-20T10:05:51;101501.44;;;21.32
81657;BMP280;71067;51.482;-0.580;2023-07-20T10:08:18;101502.22;;;21.33
81657;BMP280;71067;51.482;-0.580;2023-07-20T10:10:47;101498.31;;;21.42
81657;BMP280;71067;51.482;-0.580;2023-07-20T10:13:25;101501.69;;;21.49
81657;BMP280;71067;51.482;-0.580;2023-07-20T10:15:54;101491.28;;;21.54
81657;BMP280;71067;51.482;-0.580;2023-07-20T10:18:45;101496.09;;;21.64
81657;BMP280;71067;51.482;-0.580;2023-07-20T10:21:14;101496.66;;;21.66
81657;BMP280;71067;51.482;-0.580;2023-07-20T10:23:42;101499.91;;;21.68
81657;BMP280;71067;51.482;-0.580;2023-07-20T10:26:07;101498.16;;;21.80
81657;BMP280;71067;51.482;-0.580;2023-07-20T10:28:34;101497.53;;;21.78
81657;BMP280;71067;51.482;-0.580;2023-07-20T10:30:59;101494.03;;;21.84
81657;BMP280;71067;51.482;-0.580;2023-07-20T10:33:24;101482.25;;;21.86
81657;BMP280;71067;51.482;-0.580;2023-07-20T10:38:16;101491.31;;;22.08
81657;BMP280;71067;51.482;-0.580;2023-07-20T10:40:41;101489.84;;;22.12
81657;BMP280;71067;51.482;-0.580;2023-07-20T10:43:09;101502.13;;;22.18
81657;BMP280;71067;51.482;-0.580;2023-07-20T10:45:53;101485.22;;;22.26
81657;BMP280;71067;51.482;-0.580;2023-07-20T10:48:24;101490.25;;;22.27
81657;BMP280;71067;51.482;-0.580;2023-07-20T10:51:12;101477.34;;;22.19
81657;BMP280;71067;51.482;-0.580;2023-07-20T10:53:41;101490.16;;;22.34
81657;BMP280;71067;51.482;-0.580;2023-07-20T10:56:15;101480.41;;;22.34
81657;BMP280;71067;51.482;-0.580;2023-07-20T10:58:41;101479.88;;;22.44
81657;BMP280;71067;51.482;-0.580;2023-07-20T11:01:07;101474.09;;;22.35
81657;BMP280;71067;51.482;-0.580;2023-07-20T11:03:36;101480.69;;;22.44
81657;BMP280;71067;51.482;-0.580;2023-07-20T11:06:29;101477.34;;;22.49
81657;BMP280;71067;51.482;-0.580;2023-07-20T11:11:29;101478.88;;;22.56
81657;BMP280;71067;51.482;-0.580;2023-07-20T11:14:02;101466.69;;;22.55
81657;BMP280;71067;51.482;-0.580;2023-07-20T11:19:00;101475.25;;;22.80
81657;BMP280;71067;51.482;-0.580;2023-07-20T11:21:26;101473.44;;;22.81
81657;BMP280;71067;51.482;-0.580;2023-07-20T11:23:55;101457.09;;;22.72
81657;BMP280;71067;51.482;-0.580;2023-07-20T11:26:21;101468.34;;;22.79
81657;BMP280;71067;51.482;-0.580;2023-07-20T11:28:50;101471.16;;;22.96
81657;BMP280;71067;51.482;-0.580;2023-07-20T11:31:16;101462.09;;;23.15
81657;BMP280;71067;51.482;-0.580;2023-07-20T11:33:42;101464.75;;;23.15
81657;BMP280;71067;51.482;-0.580;2023-07-20T11:36:08;101462.16;;;23.32
81657;BMP280;71067;51.482;-0.580;2023-07-20T11:38:34;101458.81;;;23.36
81657;BMP280;71067;51.482;-0.580;2023-07-20T11:40:59;101464.94;;;23.37
81657;BMP280;71067;51.482;-0.580;2023-07-20T11:43:24;101467.66;;;23.42
81657;BMP280;71067;51.482;-0.580;2023-07-20T11:45:51;101458.38;;;23.39
81657;BMP280;71067;51.482;-0.580;2023-07-20T11:48:17;101457.56;;;23.39
81657;BMP280;71067;51.482;-0.580;2023-07-20T11:50:42;101451.59;;;23.32
81657;BMP280;71067;51.482;-0.580;2023-07-20T11:53:08;101452.41;;;23.32
81657;BMP280;71067;51.482;-0.580;2023-07-20T11:55:34;101437.69;;;23.36
81657;BMP280;71067;51.482;-0.580;2023-07-20T11:58:06;101435.41;;;23.28
81657;BMP280;71067;51.482;-0.580;2023-07-20T12:00:33;101441.84;;;23.44
81657;BMP280;71067;51.482;-0.580;2023-07-20T12:02:59;101430.75;;;23.47
81657;BMP280;71067;51.482;-0.580;2023-07-20T12:05:25;101428.53;;;23.55
81657;BMP280;71067;51.482;-0.580;2023-07-20T12:07:51;101438.69;;;23.86
81657;BMP280;71067;51.482;-0.580;2023-07-20T12:10:26;101432.28;;;23.99
81657;BMP280;71067;51.482;-0.580;2023-07-20T12:12:53;101437.00;;;24.08
81657;BMP280;71067;51.482;-0.580;2023-07-20T12:15:21;101434.25;;;24.20
81657;BMP280;71067;51.482;-0.580;2023-07-20T12:17:49;101421.38;;;24.23
81657;BMP280;71067;51.482;-0.580;2023-07-20T12:20:25;101431.25;;;24.28
81657;BMP280;71067;51.482;-0.580;2023-07-20T12:22:51;101420.66;;;24.28
81657;BMP280;71067;51.482;-0.580;2023-07-20T12:25:16;101430.44;;;24.27
81657;BMP280;71067;51.482;-0.580;2023-07-20T12:27:45;101421.47;;;24.28
81657;BMP280;71067;51.482;-0.580;2023-07-20T12:30:10;101425.63;;;24.24
81657;BMP280;71067;51.482;-0.580;2023-07-20T12:32:36;101430.25;;;24.17
81657;BMP280;71067;51.482;-0.580;2023-07-20T12:35:01;101409.47;;;24.26
81657;BMP280;71067;51.482;-0.580;2023-07-20T12:37:26;101413.75;;;24.43
81657;BMP280;71067;51.482;-0.580;2023-07-20T12:39:52;101418.59;;;24.63
81657;BMP280;71067;51.482;-0.580;2023-07-20T12:42:18;101412.84;;;24.71
81657;BMP280;71067;51.482;-0.580;2023-07-20T12:44:43;101403.38;;;24.75
81657;BMP280;71067;51.482;-0.580;2023-07-20T12:47:08;101420.81;;;24.71
81657;BMP280;71067;51.482;-0.580;2023-07-20T12:49:34;101407.34;;;24.56
81657;BMP280;71067;51.482;-0.580;2023-07-20T12:51:59;101412.19;;;24.64
81657;BMP280;71067;51.482;-0.580;2023-07-20T12:54:25;101403.16;;;24.60
81657;BMP280;71067;51.482;-0.580;2023-07-20T12:56:50;101396.09;;;24.65
81657;BMP280;71067;51.482;-0.580;2023-07-20T12:59:15;101390.59;;;24.72
81657;BMP280;71067;51.482;-0.580;2023-07-20T13:01:41;101386.78;;;24.63
81657;BMP280;71067;51.482;-0.580;2023-07-20T13:04:07;101392.22;;;24.73
81657;BMP280;71067;51.482;-0.580;2023-07-20T13:06:34;101379.53;;;24.75
81657;BMP280;71067;51.482;-0.580;2023-07-20T13:09:00;101385.97;;;24.62
81657;BMP280;71067;51.482;-0.580;2023-07-20T13:11:25;101393.50;;;24.54
81657;BMP280;71067;51.482;-0.580;2023-07-20T13:13:50;101383.66;;;24.49
81657;BMP280;71067;51.482;-0.580;2023-07-20T13:16:16;101381.50;;;24.46
81657;BMP280;71067;51.482;-0.580;2023-07-20T13:18:42;101360.13;;;24.36
81657;BMP280;71067;51.482;-0.580;2023-07-20T13:21:07;101377.75;;;24.42
81657;BMP280;71067;51.482;-0.580;2023-07-20T13:23:36;101365.53;;;24.41
81657;BMP280;71067;51.482;-0.580;2023-07-20T13:26:02;101369.66;;;24.54
81657;BMP280;71067;51.482;-0.580;2023-07-20T13:28:28;101362.53;;;24.54
81657;BMP280;71067;51.482;-0.580;2023-07-20T13:30:53;101365.31;;;24.64
81657;BMP280;71067;51.482;-0.580;2023-07-20T13:33:18;101352.22;;;24.74
81657;BMP280;71067;51.482;-0.580;2023-07-20T13:35:44;101362.44;;;25.04
81657;BMP280;71067;51.482;-0.580;2023-07-20T13:38:09;101361.13;;;25.06
81657;BMP280;71067;51.482;-0.580;2023-07-20T13:40:34;101362.25;;;25.10
81657;BMP280;71067;51.482;-0.580;2023-07-20T13:43:00;101368.84;;;25.08
81657;BMP280;71067;51.482;-0.580;2023-07-20T13:45:25;101359.88;;;24.92
81657;BMP280;71067;51.482;-0.580;2023-07-20T13:47:51;101361.75;;;24.92
81657;BMP280;71067;51.482;-0.580;2023-07-20T13:50:16;101360.06;;;24.86
81657;BMP280;71067;51.482;-0.580;2023-07-20T13:52:42;101357.00;;;24.94